sensor_id;sensor_type;location;lat;lon;timestamp;pressure;altitude;pressure_sealevel;temperature;humidity
60019;BME280;45870;42.528;26.740;2022-09-09T00:03:48;99948.50;;;20.87;44.22
60019;BME280;45870;42.528;26.740;2022-09-09T00:06:26;99937.75;;;20.91;44.13
60019;BME280;45870;42.528;26.740;2022-09-09T00:09:18;99944.56;;;21.17;43.58
60019;BME280;45870;42.528;26.740;2022-09-09T00:11:59;99947.41;;;20.88;44.28
60019;BME280;45870;42.528;26.740;2022-09-09T00:14:37;99948.97;;;20.94;44.29
60019;BME280;45870;42.528;26.740;2022-09-09T00:17:14;99947.31;;;20.75;44.63
60019;BME280;45870;42.528;26.740;2022-09-09T00:20:13;99941.97;;;20.65;44.64
60019;BME280;45870;42.528;26.740;2022-09-09T00:22:49;99935.44;;;20.79;44.44
60019;BME280;45870;42.528;26.740;2022-09-09T00:25:26;99742.63;;;19.62;44.40
60019;BME280;45870;42.528;26.740;2022-09-09T00:27:54;99943.47;;;20.94;44.01
60019;BME280;45870;42.528;26.740;2022-09-09T00:30:23;99939.16;;;20.70;44.37
60019;BME280;45870;42.528;26.740;2022-09-09T00:33:11;99935.66;;;20.64;44.46
60019;BME280;45870;42.528;26.740;2022-09-09T00:35:45;99870.53;;;20.32;44.41
60019;BME280;45870;42.528;26.740;2022-09-09T00:44:03;99956.44;;;20.70;44.35
60019;BME280;45870;42.528;26.740;2022-09-09T00:46:48;99953.50;;;20.43;45.32
60019;BME280;45870;42.528;26.740;2022-09-09T00:59:58;99939.47;;;20.44;45.25
60019;BME280;45870;42.528;26.740;2022-09-09T01:02:32;99938.25;;;20.32;45.80
60019;BME280;45870;42.528;26.740;2022-09-09T01:05:07;99939.19;;;20.46;45.82
60019;BME280;45870;42.528;26.740;2022-09-09T01:07:37;99932.97;;;20.59;45.29
60019;BME280;45870;42.528;26.740;2022-09-09T01:10:11;99937.00;;;20.67;45.30
60019;BME280;45870;42.528;26.740;2022-09-09T01:12:43;99940.78;;;20.71;45.12
60019;BME280;45870;42.528;26.740;2022-09-09T01:15:17;99937.53;;;20.69;45.26
60019;BME280;45870;42.528;26.740;2022-09-09T01:18:10;99693.97;;;19.06;45.45
60019;BME280;45870;42.528;26.740;2022-09-09T01:23:50;99938.22;;;20.56;45.51
60019;BME280;45870;42.528;26.740;2022-09-09T01:26:39;99926.75;;;20.72;45.45
60019;BME280;45870;42.528;26.740;2022-09-09T01:29:12;99933.84;;;20.78;45.11
60019;BME280;45870;42.528;26.740;2022-09-09T01:31:52;99930.50;;;20.81;45.20
60019;BME280;45870;42.528;26.740;2022-09-09T01:34:19;99930.34;;;20.91;44.73
60019;BME280;45870;42.528;26.740;2022-09-09T01:36:52;99944.78;;;20.60;45.51
60019;BME280;45870;42.528;26.740;2022-09-09T01:39:20;99939.38;;;20.55;45.39
60019;BME280;45870;42.528;26.740;2022-09-09T01:41:46;99944.84;;;20.55;45.41
60019;BME280;45870;42.528;26.740;2022-09-09T01:44:12;99942.75;;;20.47;45.39
60019;BME280;45870;42.528;26.740;2022-09-09T01:46:38;99940.41;;;20.35;45.30
60019;BME280;45870;42.528;26.740;2022-09-09T01:49:05;99900.63;;;20.37;44.63
60019;BME280;45870;42.528;26.740;2022-09-09T01:51:33;99944.25;;;20.58;44.39
60019;BME280;45870;42.528;26.740;2022-09-09T01:53:59;99944.72;;;20.41;44.61
60019;BME280;45870;42.528;26.740;2022-09-09T01:56:40;99948.28;;;20.41;44.46
60019;BME280;45870;42.528;26.740;2022-09-09T01:59:24;99940.50;;;20.25;44.79
60019;BME280;45870;42.528;26.740;2022-09-09T02:04:39;99933.38;;;20.24;45.23
60019;BME280;45870;42.528;26.740;2022-09-09T02:09:44;99910.25;;;20.35;44.70
60019;BME280;45870;42.528;26.740;2022-09-09T02:12:16;99937.75;;;20.30;45.02
60019;BME280;45870;42.528;26.740;2022-09-09T02:14:57;99935.66;;;20.17;45.15
60019;BME280;45870;42.528;26.740;2022-09-09T02:17:29;99930.72;;;20.19;45.25
60019;BME280;45870;42.528;26.740;2022-09-09T02:20:03;99908.25;;;20.17;45.06
60019;BME280;45870;42.528;26.740;2022-09-09T02:22:31;99936.38;;;20.27;45.07
60019;BME280;45870;42.528;26.740;2022-09-09T02:25:00;99930.72;;;20.19;45.25
60019;BME280;45870;42.528;26.740;2022-09-09T02:27:26;99926.84;;;20.20;45.25
60019;BME280;45870;42.528;26.740;2022-09-09T02:29:54;99927.41;;;20.46;45.07
60019;BME280;45870;42.528;26.740;2022-09-09T02:32:23;99934.19;;;20.29;45.28
60019;BME280;45870;42.528;26.740;2022-09-09T02:35:01;99899.41;;;20.01;45.34
60019;BME280;45870;42.528;26.740;2022-09-09T02:37:36;99928.53;;;19.92;45.74
60019;BME280;45870;42.528;26.740;2022-09-09T02:40:07;99928.31;;;20.12;45.53
60019;BME280;45870;42.528;26.740;2022-09-09T02:42:44;99940.16;;;20.08;45.21
60019;BME280;45870;42.528;26.740;2022-09-09T02:45:14;99939.69;;;20.01;45.16
60019;BME280;45870;42.528;26.740;2022-09-09T02:47:55;99928.28;;;19.88;45.28
60019;BME280;45870;42.528;26.740;2022-09-09T02:50:35;99933.72;;;19.93;45.88
60019;BME280;45870;42.528;26.740;2022-09-09T02:53:21;99931.63;;;20.09;45.87
60019;BME280;45870;42.528;26.740;2022-09-09T02:55:54;99938.00;;;20.05;45.77
60019;BME280;45870;42.528;26.740;2022-09-09T02:58:21;99939.84;;;20.09;45.80
60019;BME280;45870;42.528;26.740;2022-09-09T03:00:49;99939.06;;;20.09;45.37
60019;BME280;45870;42.528;26.740;2022-09-09T03:03:16;99874.78;;;19.72;45.26
60019;BME280;45870;42.528;26.740;2022-09-09T03:05:43;99939.81;;;20.14;45.32
60019;BME280;45870;42.528;26.740;2022-09-09T03:08:10;99940.78;;;20.00;45.86
60019;BME280;45870;42.528;26.740;2022-09-09T03:10:36;99937.56;;;20.16;45.32
60019;BME280;45870;42.528;26.740;2022-09-09T03:13:02;99855.72;;;19.62;45.52
60019;BME280;45870;42.528;26.740;2022-09-09T03:15:32;99927.97;;;20.19;45.69
60019;BME280;45870;42.528;26.740;2022-09-09T03:17:59;99931.13;;;20.55;44.73
60019;BME280;45870;42.528;26.740;2022-09-09T03:20:25;99929.03;;;20.47;44.94
60019;BME280;45870;42.528;26.740;2022-09-09T03:22:53;99931.91;;;20.36;45.15
60019;BME280;45870;42.528;26.740;2022-09-09T03:25:19;99930.34;;;20.25;45.33
60019;BME280;45870;42.528;26.740;2022-09-09T03:27:45;99935.28;;;20.28;45.28
60019;BME280;45870;42.528;26.740;2022-09-09T03:30:11;99935.66;;;20.17;45.41
60019;BME280;45870;42.528;26.740;2022-09-09T03:32:37;99885.03;;;19.85;45.30
60019;BME280;45870;42.528;26.740;2022-09-09T03:35:03;99937.06;;;20.14;45.38
60019;BME280;45870;42.528;26.740;2022-09-09T03:37:29;99953.16;;;20.21;45.63
60019;BME280;45870;42.528;26.740;2022-09-09T03:39:55;99950.56;;;20.34;45.47
60019;BME280;45870;42.528;26.740;2022-09-09T03:42:21;99845.16;;;19.74;45.54
60019;BME280;45870;42.528;26.740;2022-09-09T03:44:47;99941.66;;;20.48;45.05
60019;BME280;45870;42.528;26.740;2022-09-09T03:47:16;99949.41;;;20.40;45.14
60019;BME280;45870;42.528;26.740;2022-09-09T03:49:42;99943.09;;;20.40;45.37
60019;BME280;45870;42.528;26.740;2022-09-09T03:52:09;99946.44;;;20.37;45.61
60019;BME280;45870;42.528;26.740;2022-09-09T03:54:35;99950.66;;;20.48;45.46
60019;BME280;45870;42.528;26.740;2022-09-09T03:57:02;99945.63;;;20.79;44.84
60019;BME280;45870;42.528;26.740;2022-09-09T03:59:28;99949.63;;;20.86;45.09
60019;BME280;45870;42.528;26.740;2022-09-09T04:01:54;99944.41;;;21.27;44.85
60019;BME280;45870;42.528;26.740;2022-09-09T04:04:20;99929.06;;;21.59;44.12
60019;BME280;45870;42.528;26.740;2022-09-09T04:06:46;99941.41;;;22.21;43.59
60019;BME280;45870;42.528;26.740;2022-09-09T04:09:14;99942.13;;;22.67;42.31
60019;BME280;45870;42.528;26.740;2022-09-09T04:11:42;99917.38;;;22.67;41.73
60019;BME280;45870;42.528;26.740;2022-09-09T04:14:08;99929.69;;;22.70;41.50
60019;BME280;45870;42.528;26.740;2022-09-09T04:16:34;99928.91;;;22.69;41.52
60019;BME280;45870;42.528;26.740;2022-09-09T04:19:02;99927.34;;;22.50;42.16
60019;BME280;45870;42.528;26.740;2022-09-09T04:21:30;99846.25;;;22.47;41.79
60019;BME280;45870;42.528;26.740;2022-09-09T04:23:56;99930.94;;;23.35;40.81
60019;BME280;45870;42.528;26.740;2022-09-09T04:26:22;99937.19;;;24.25;39.24
60019;BME280;45870;42.528;26.740;2022-09-09T04:28:48;99931.59;;;24.47;38.60
60019;BME280;45870;42.528;26.740;2022-09-09T04:31:20;99932.56;;;25.25;37.35
60019;BME280;45870;42.528;26.740;2022-09-09T04:33:48;99937.09;;;26.57;35.10
60019;BME280;45870;42.528;26.740;2022-09-09T04:36:16;99946.13;;;27.04;33.87
60019;BME280;45870;42.528;26.740;2022-09-09T04:38:44;99934.63;;;27.88;32.60
60019;BME280;45870;42.528;26.740;2022-09-09T04:41:10;99939.56;;;28.40;31.65
60019;BME280;45870;42.528;26.740;2022-09-09T04:43:38;99919.88;;;27.63;32.94
60019;BME280;45870;42.528;26.740;2022-09-09T04:46:04;99944.75;;;27.30;33.87
60019;BME280;45870;42.528;26.740;2022-09-09T04:48:30;99941.78;;;26.36;35.70
60019;BME280;45870;42.528;26.740;2022-09-09T04:51:05;99941.84;;;26.18;36.09
60019;BME280;45870;42.528;26.740;2022-09-09T04:53:31;99943.16;;;26.12;36.88
60019;BME280;45870;42.528;26.740;2022-09-09T04:56:11;99948.00;;;26.15;36.51
60019;BME280;45870;42.528;26.740;2022-09-09T04:58:38;99941.25;;;25.96;36.58
60019;BME280;45870;42.528;26.740;2022-09-09T05:01:12;99937.34;;;26.43;35.68
60019;BME280;45870;42.528;26.740;2022-09-09T05:03:38;99943.47;;;26.57;35.92
60019;BME280;45870;42.528;26.740;2022-09-09T05:06:05;99945.31;;;27.03;35.23
60019;BME280;45870;42.528;26.740;2022-09-09T05:08:31;99950.19;;;27.27;34.83
60019;BME280;45870;42.528;26.740;2022-09-09T05:10:57;99943.97;;;27.30;35.14
60019;BME280;45870;42.528;26.740;2022-09-09T05:13:26;99941.94;;;25.84;38.43
60019;BME280;45870;42.528;26.740;2022-09-09T05:15:53;99920.53;;;26.19;37.65
60019;BME280;45870;42.528;26.740;2022-09-09T05:18:19;99943.53;;;26.49;37.00
60019;BME280;45870;42.528;26.740;2022-09-09T05:20:45;99940.78;;;26.99;36.49
60019;BME280;45870;42.528;26.740;2022-09-09T05:23:10;99934.91;;;27.00;36.39
60019;BME280;45870;42.528;26.740;2022-09-09T05:25:39;99869.72;;;26.53;36.70
60019;BME280;45870;42.528;26.740;2022-09-09T05:28:09;99931.59;;;27.27;35.88
60019;BME280;45870;42.528;26.740;2022-09-09T05:30:34;99939.22;;;27.30;35.94
60019;BME280;45870;42.528;26.740;2022-09-09T05:33:00;99850.31;;;27.03;35.04
60019;BME280;45870;42.528;26.740;2022-09-09T05:35:27;99938.91;;;27.86;34.53
60019;BME280;45870;42.528;26.740;2022-09-09T05:37:52;99936.19;;;28.22;33.90
60019;BME280;45870;42.528;26.740;2022-09-09T05:40:18;99939.03;;;28.46;33.63
60019;BME280;45870;42.528;26.740;2022-09-09T05:42:44;99937.34;;;27.43;35.30
60019;BME280;45870;42.528;26.740;2022-09-09T05:45:10;99946.31;;;27.94;34.54
60019;BME280;45870;42.528;26.740;2022-09-09T05:47:36;99868.97;;;25.59;38.30
60019;BME280;45870;42.528;26.740;2022-09-09T05:50:04;99942.28;;;28.03;34.63
60019;BME280;45870;42.528;26.740;2022-09-09T05:52:29;99948.44;;;27.22;35.60
60019;BME280;45870;42.528;26.740;2022-09-09T05:54:55;99957.88;;;27.96;34.39
60019;BME280;45870;42.528;26.740;2022-09-09T05:57:22;99953.38;;;28.72;33.08
60019;BME280;45870;42.528;26.740;2022-09-09T05:59:48;99963.06;;;28.30;33.43
60019;BME280;45870;42.528;26.740;2022-09-09T06:02:15;99957.88;;;26.42;37.10
60019;BME280;45870;42.528;26.740;2022-09-09T06:04:40;99969.03;;;29.17;32.02
60019;BME280;45870;42.528;26.740;2022-09-09T06:07:07;99887.56;;;29.01;31.37
60019;BME280;45870;42.528;26.740;2022-09-09T06:09:33;99965.81;;;33.18;25.61
60019;BME280;45870;42.528;26.740;2022-09-09T06:11:59;99956.38;;;33.96;24.76
60019;BME280;45870;42.528;26.740;2022-09-09T06:14:25;99954.59;;;33.47;24.77
60019;BME280;45870;42.528;26.740;2022-09-09T06:16:52;99961.78;;;32.89;26.12
60019;BME280;45870;42.528;26.740;2022-09-09T06:19:18;99969.22;;;31.71;27.56
60019;BME280;45870;42.528;26.740;2022-09-09T06:21:45;99966.38;;;31.67;27.35
60019;BME280;45870;42.528;26.740;2022-09-09T06:24:13;99936.88;;;34.06;24.14
60019;BME280;45870;42.528;26.740;2022-09-09T06:26:42;99973.81;;;33.19;25.90
60019;BME280;45870;42.528;26.740;2022-09-09T06:29:09;99980.88;;;34.43;24.42
60019;BME280;45870;42.528;26.740;2022-09-09T06:31:36;99955.13;;;35.36;22.69
60019;BME280;45870;42.528;26.740;2022-09-09T06:34:05;99980.59;;;35.85;22.36
60019;BME280;45870;42.528;26.740;2022-09-09T06:36:33;99939.69;;;33.70;25.07
60019;BME280;45870;42.528;26.740;2022-09-09T06:39:00;99984.03;;;32.13;27.29
60019;BME280;45870;42.528;26.740;2022-09-09T06:41:28;99987.50;;;32.52;27.29
60019;BME280;45870;42.528;26.740;2022-09-09T06:43:54;99983.22;;;33.07;26.42
60019;BME280;45870;42.528;26.740;2022-09-09T06:46:24;99977.22;;;32.11;26.97
60019;BME280;45870;42.528;26.740;2022-09-09T06:48:54;99978.47;;;33.38;25.63
60019;BME280;45870;42.528;26.740;2022-09-09T06:51:23;99971.97;;;34.78;24.74
60019;BME280;45870;42.528;26.740;2022-09-09T06:53:54;99976.34;;;34.72;24.41
60019;BME280;45870;42.528;26.740;2022-09-09T06:56:29;99972.19;;;33.18;25.97
60019;BME280;45870;42.528;26.740;2022-09-09T06:58:57;99973.13;;;30.62;29.93
60019;BME280;45870;42.528;26.740;2022-09-09T07:01:28;99964.28;;;32.71;26.90
60019;BME280;45870;42.528;26.740;2022-09-09T07:03:57;99954.44;;;31.32;29.20
60019;BME280;45870;42.528;26.740;2022-09-09T07:06:29;99951.22;;;33.64;25.70
60019;BME280;45870;42.528;26.740;2022-09-09T07:08:57;99946.78;;;34.85;24.08
60019;BME280;45870;42.528;26.740;2022-09-09T07:11:27;99940.66;;;34.65;24.14
60019;BME280;45870;42.528;26.740;2022-09-09T07:13:54;99944.44;;;34.90;23.78
60019;BME280;45870;42.528;26.740;2022-09-09T07:16:21;99928.41;;;35.77;23.26
60019;BME280;45870;42.528;26.740;2022-09-09T07:18:50;99946.59;;;36.58;21.43
60019;BME280;45870;42.528;26.740;2022-09-09T07:21:17;99953.66;;;37.43;21.28
60019;BME280;45870;42.528;26.740;2022-09-09T07:23:43;99959.41;;;37.08;20.54
60019;BME280;45870;42.528;26.740;2022-09-09T07:26:15;99963.06;;;36.70;20.72
60019;BME280;45870;42.528;26.740;2022-09-09T07:28:42;99965.34;;;35.03;23.39
60019;BME280;45870;42.528;26.740;2022-09-09T07:31:20;99960.00;;;34.37;23.94
60019;BME280;45870;42.528;26.740;2022-09-09T07:33:47;99961.81;;;36.46;21.59
60019;BME280;45870;42.528;26.740;2022-09-09T07:36:18;99959.78;;;37.17;20.56
60019;BME280;45870;42.528;26.740;2022-09-09T07:38:53;99959.44;;;36.83;21.02
60019;BME280;45870;42.528;26.740;2022-09-09T07:41:24;99924.44;;;37.02;21.04
60019;BME280;45870;42.528;26.740;2022-09-09T07:43:51;99925.72;;;36.55;20.34
60019;BME280;45870;42.528;26.740;2022-09-09T07:46:20;99949.75;;;36.88;19.26
60019;BME280;45870;42.528;26.740;2022-09-09T07:48:54;99949.59;;;37.44;19.84
60019;BME280;45870;42.528;26.740;2022-09-09T07:51:26;99952.69;;;37.82;16.16
60019;BME280;45870;42.528;26.740;2022-09-09T07:53:56;99950.59;;;36.78;18.09
60019;BME280;45870;42.528;26.740;2022-09-09T07:56:26;99940.63;;;37.78;17.86
60019;BME280;45870;42.528;26.740;2022-09-09T07:58:54;99937.72;;;38.95;16.11
60019;BME280;45870;42.528;26.740;2022-09-09T08:01:23;99938.97;;;38.90;15.75
60019;BME280;45870;42.528;26.740;2022-09-09T08:03:55;99933.50;;;38.25;14.65
60019;BME280;45870;42.528;26.740;2022-09-09T08:06:22;99928.38;;;37.29;17.18
60019;BME280;45870;42.528;26.740;2022-09-09T08:08:50;99930.16;;;38.85;14.44
60019;BME280;45870;42.528;26.740;2022-09-09T08:11:17;99917.69;;;39.20;15.54
60019;BME280;45870;42.528;26.740;2022-09-09T08:13:44;99922.44;;;38.48;16.27
60019;BME280;45870;42.528;26.740;2022-09-09T08:16:14;99921.22;;;39.88;14.44
60019;BME280;45870;42.528;26.740;2022-09-09T08:18:40;99820.16;;;38.40;15.43
60019;BME280;45870;42.528;26.740;2022-09-09T08:21:12;99890.91;;;39.31;15.20
60019;BME280;45870;42.528;26.740;2022-09-09T08:23:42;99919.16;;;37.18;17.58
60019;BME280;45870;42.528;26.740;2022-09-09T08:26:16;99923.22;;;38.52;16.48
60019;BME280;45870;42.528;26.740;2022-09-09T08:28:43;99924.34;;;38.99;16.14
60019;BME280;45870;42.528;26.740;2022-09-09T08:31:17;99914.63;;;39.68;14.18
60019;BME280;45870;42.528;26.740;2022-09-09T08:33:44;99919.84;;;38.64;15.59
60019;BME280;45870;42.528;26.740;2022-09-09T08:36:13;99919.16;;;37.22;17.61
60019;BME280;45870;42.528;26.740;2022-09-09T08:38:41;99916.03;;;36.06;18.90
60019;BME280;45870;42.528;26.740;2022-09-09T08:41:22;99905.53;;;36.88;17.61
60019;BME280;45870;42.528;26.740;2022-09-09T08:55:39;99909.03;;;41.50;13.47
60019;BME280;45870;42.528;26.740;2022-09-09T08:58:19;99899.16;;;41.38;13.38
60019;BME280;45870;42.528;26.740;2022-09-09T09:03:28;99888.63;;;39.80;15.26
60019;BME280;45870;42.528;26.740;2022-09-09T09:06:04;99897.47;;;37.91;16.77
60019;BME280;45870;42.528;26.740;2022-09-09T09:08:45;99891.06;;;39.51;14.77
60019;BME280;45870;42.528;26.740;2022-09-09T09:11:13;99888.91;;;38.09;16.63
60019;BME280;45870;42.528;26.740;2022-09-09T09:13:47;99885.78;;;37.13;18.17
60019;BME280;45870;42.528;26.740;2022-09-09T09:16:27;99884.59;;;37.11;19.08
60019;BME280;45870;42.528;26.740;2022-09-09T09:18:54;99883.75;;;37.24;18.00
60019;BME280;45870;42.528;26.740;2022-09-09T09:21:36;99873.06;;;36.70;19.21
60019;BME280;45870;42.528;26.740;2022-09-09T09:24:10;99845.28;;;35.55;20.44
60019;BME280;45870;42.528;26.740;2022-09-09T09:26:43;99756.25;;;35.59;19.92
60019;BME280;45870;42.528;26.740;2022-09-09T09:29:14;99850.53;;;37.67;18.72
60019;BME280;45870;42.528;26.740;2022-09-09T09:31:45;99843.53;;;38.41;17.38
60019;BME280;45870;42.528;26.740;2022-09-09T09:34:13;99831.69;;;36.31;19.85
60019;BME280;45870;42.528;26.740;2022-09-09T09:36:45;99834.38;;;36.91;19.22
60019;BME280;45870;42.528;26.740;2022-09-09T09:39:32;99834.97;;;37.41;18.33
60019;BME280;45870;42.528;26.740;2022-09-09T09:42:11;99834.53;;;37.57;18.26
60019;BME280;45870;42.528;26.740;2022-09-09T09:44:40;99833.31;;;36.29;19.73
60019;BME280;45870;42.528;26.740;2022-09-09T09:47:14;99737.41;;;35.88;19.10
60019;BME280;45870;42.528;26.740;2022-09-09T09:49:58;99832.94;;;37.53;17.70
60019;BME280;45870;42.528;26.740;2022-09-09T09:52:28;99822.50;;;35.85;19.99
60019;BME280;45870;42.528;26.740;2022-09-09T09:54:56;99735.38;;;36.02;19.41
60019;BME280;45870;42.528;26.740;2022-09-09T09:57:26;99817.41;;;37.16;19.05
60019;BME280;45870;42.528;26.740;2022-09-09T10:00:01;99814.81;;;36.38;19.27
60019;BME280;45870;42.528;26.740;2022-09-09T10:02:38;99825.00;;;37.92;18.23
60019;BME280;45870;42.528;26.740;2022-09-09T10:07:37;99813.75;;;38.74;17.52
60019;BME280;45870;42.528;26.740;2022-09-09T10:10:05;99805.97;;;36.47;19.11
60019;BME280;45870;42.528;26.740;2022-09-09T10:12:50;99824.53;;;37.38;18.82
60019;BME280;45870;42.528;26.740;2022-09-09T10:15:44;99821.78;;;37.28;19.37
60019;BME280;45870;42.528;26.740;2022-09-09T10:18:40;99821.22;;;36.60;18.76
60019;BME280;45870;42.528;26.740;2022-09-09T10:21:31;99816.66;;;35.10;20.64
60019;BME280;45870;42.528;26.740;2022-09-09T10:27:10;99768.31;;;35.84;19.76
60019;BME280;45870;42.528;26.740;2022-09-09T10:29:47;99814.66;;;35.04;21.00
60019;BME280;45870;42.528;26.740;2022-09-09T10:40:37;99801.09;;;36.76;19.52
60019;BME280;45870;42.528;26.740;2022-09-09T10:43:25;99807.13;;;36.78;19.90
60019;BME280;45870;42.528;26.740;2022-09-09T10:49:15;99797.88;;;36.77;20.17
60019;BME280;45870;42.528;26.740;2022-09-09T10:52:03;99782.06;;;38.22;18.05
60019;BME280;45870;42.528;26.740;2022-09-09T10:54:55;99783.41;;;38.10;18.57
60019;BME280;45870;42.528;26.740;2022-09-09T10:57:48;99774.22;;;38.03;18.30
60019;BME280;45870;42.528;26.740;2022-09-09T11:00:25;99758.69;;;35.92;20.49
60019;BME280;45870;42.528;26.740;2022-09-09T11:03:01;99768.94;;;39.10;16.92
60019;BME280;45870;42.528;26.740;2022-09-09T11:05:42;99777.75;;;38.51;17.92
60019;BME280;45870;42.528;26.740;2022-09-09T11:08:21;99773.72;;;36.90;18.61
60019;BME280;45870;42.528;26.740;2022-09-09T11:11:10;99764.94;;;36.74;18.59
60019;BME280;45870;42.528;26.740;2022-09-09T11:14:01;99765.78;;;38.40;18.41
60019;BME280;45870;42.528;26.740;2022-09-09T11:22:02;99753.53;;;37.72;18.84
60019;BME280;45870;42.528;26.740;2022-09-09T11:24:35;99744.03;;;38.40;17.20
60019;BME280;45870;42.528;26.740;2022-09-09T11:27:23;99752.19;;;37.32;19.35
60019;BME280;45870;42.528;26.740;2022-09-09T11:32:43;99738.75;;;38.76;16.97
60019;BME280;45870;42.528;26.740;2022-09-09T11:38:16;99739.66;;;38.32;18.05
60019;BME280;45870;42.528;26.740;2022-09-09T11:40:44;99738.50;;;38.64;17.96
60019;BME280;45870;42.528;26.740;2022-09-09T11:43:16;99736.13;;;36.31;19.07
60019;BME280;45870;42.528;26.740;2022-09-09T11:45:53;99732.97;;;37.75;18.62
60019;BME280;45870;42.528;26.740;2022-09-09T11:48:31;99730.19;;;37.13;18.08
60019;BME280;45870;42.528;26.740;2022-09-09T11:53:54;99721.03;;;37.60;17.74
60019;BME280;45870;42.528;26.740;2022-09-09T11:56:26;99723.19;;;37.38;17.83
60019;BME280;45870;42.528;26.740;2022-09-09T11:59:19;99713.63;;;38.55;16.83
60019;BME280;45870;42.528;26.740;2022-09-09T12:06:56;99711.53;;;37.36;17.55
60019;BME280;45870;42.528;26.740;2022-09-09T12:09:33;99730.22;;;37.06;18.11
60019;BME280;45870;42.528;26.740;2022-09-09T12:12:07;99717.09;;;38.32;17.21
60019;BME280;45870;42.528;26.740;2022-09-09T12:14:54;99681.69;;;39.92;15.23
60019;BME280;45870;42.528;26.740;2022-09-09T12:17:23;99708.00;;;40.52;14.81
60019;BME280;45870;42.528;26.740;2022-09-09T12:20:21;99700.50;;;41.01;14.53
60019;BME280;45870;42.528;26.740;2022-09-09T12:23:03;99695.84;;;40.90;14.53
60019;BME280;45870;42.528;26.740;2022-09-09T12:28:25;99659.22;;;40.28;14.61
60019;BME280;45870;42.528;26.740;2022-09-09T12:31:01;99691.06;;;41.23;14.47
60019;BME280;45870;42.528;26.740;2022-09-09T12:33:38;99678.13;;;39.41;15.97
60019;BME280;45870;42.528;26.740;2022-09-09T12:36:14;99674.84;;;39.70;15.22
60019;BME280;45870;42.528;26.740;2022-09-09T12:38:44;99648.25;;;39.87;14.74
60019;BME280;45870;42.528;26.740;2022-09-09T12:41:25;99675.69;;;40.88;14.29
60019;BME280;45870;42.528;26.740;2022-09-09T12:43:51;99669.41;;;40.41;14.94
60019;BME280;45870;42.528;26.740;2022-09-09T12:46:45;99666.09;;;40.82;14.27
60019;BME280;45870;42.528;26.740;2022-09-09T12:49:34;99658.88;;;40.81;14.32
60019;BME280;45870;42.528;26.740;2022-09-09T12:52:31;99660.19;;;40.57;14.38
60019;BME280;45870;42.528;26.740;2022-09-09T12:55:00;99650.78;;;42.38;13.33
60019;BME280;45870;42.528;26.740;2022-09-09T12:57:34;99654.38;;;44.12;11.84
60019;BME280;45870;42.528;26.740;2022-09-09T13:00:16;99649.00;;;40.50;14.07
60019;BME280;45870;42.528;26.740;2022-09-09T13:02:54;99651.25;;;41.30;13.83
60019;BME280;45870;42.528;26.740;2022-09-09T13:05:31;99640.91;;;42.43;12.83
60019;BME280;45870;42.528;26.740;2022-09-09T13:08:03;99620.13;;;42.04;13.38
60019;BME280;45870;42.528;26.740;2022-09-09T13:10:33;99631.44;;;44.28;11.91
60019;BME280;45870;42.528;26.740;2022-09-09T13:13:01;99637.97;;;43.94;11.77
60019;BME280;45870;42.528;26.740;2022-09-09T13:15:29;99636.50;;;41.68;13.49
60019;BME280;45870;42.528;26.740;2022-09-09T13:17:58;99628.09;;;42.09;13.02
60019;BME280;45870;42.528;26.740;2022-09-09T13:20:27;99617.59;;;45.86;10.39
60019;BME280;45870;42.528;26.740;2022-09-09T13:22:54;99632.91;;;45.34;11.16
60019;BME280;45870;42.528;26.740;2022-09-09T13:25:23;99628.00;;;45.44;10.47
60019;BME280;45870;42.528;26.740;2022-09-09T13:28:04;99530.72;;;44.25;11.13
60019;BME280;45870;42.528;26.740;2022-09-09T13:30:35;99630.41;;;40.88;14.18
60019;BME280;45870;42.528;26.740;2022-09-09T13:35:36;99623.13;;;46.17;10.00
60019;BME280;45870;42.528;26.740;2022-09-09T13:38:14;99614.34;;;47.55;9.58
60019;BME280;45870;42.528;26.740;2022-09-09T13:40:40;99609.56;;;44.68;11.29
60019;BME280;45870;42.528;26.740;2022-09-09T13:43:21;99608.34;;;44.26;11.47
60019;BME280;45870;42.528;26.740;2022-09-09T13:45:56;99603.13;;;44.55;11.19
60019;BME280;45870;42.528;26.740;2022-09-09T13:48:23;99606.34;;;42.86;12.22
60019;BME280;45870;42.528;26.740;2022-09-09T13:51:01;99601.28;;;42.39;12.61
60019;BME280;45870;42.528;26.740;2022-09-09T13:53:28;99595.94;;;43.29;11.85
60019;BME280;45870;42.528;26.740;2022-09-09T13:55:54;99597.97;;;45.79;9.80
60019;BME280;45870;42.528;26.740;2022-09-09T13:58:20;99594.25;;;44.01;11.89
60019;BME280;45870;42.528;26.740;2022-09-09T14:00:47;99592.72;;;42.68;12.55
60019;BME280;45870;42.528;26.740;2022-09-09T14:03:13;99583.72;;;42.03;12.71
60019;BME280;45870;42.528;26.740;2022-09-09T14:05:39;99583.53;;;41.81;12.83
60019;BME280;45870;42.528;26.740;2022-09-09T14:08:06;99557.09;;;43.26;11.62
60019;BME280;45870;42.528;26.740;2022-09-09T14:10:33;99587.91;;;41.69;13.29
60019;BME280;45870;42.528;26.740;2022-09-09T14:13:02;99586.44;;;43.11;12.16
60019;BME280;45870;42.528;26.740;2022-09-09T14:15:28;99585.47;;;44.60;10.76
60019;BME280;45870;42.528;26.740;2022-09-09T14:17:54;99581.13;;;42.62;12.56
60019;BME280;45870;42.528;26.740;2022-09-09T14:20:22;99584.22;;;44.61;10.85
60019;BME280;45870;42.528;26.740;2022-09-09T14:22:48;99587.19;;;43.37;12.09
60019;BME280;45870;42.528;26.740;2022-09-09T14:25:13;99577.19;;;43.32;11.90
60019;BME280;45870;42.528;26.740;2022-09-09T14:27:39;99585.34;;;44.42;10.76
60019;BME280;45870;42.528;26.740;2022-09-09T14:30:06;99541.44;;;44.92;10.46
60019;BME280;45870;42.528;26.740;2022-09-09T14:32:33;99585.25;;;43.81;11.34
60019;BME280;45870;42.528;26.740;2022-09-09T14:34:59;99578.25;;;41.96;12.31
60019;BME280;45870;42.528;26.740;2022-09-09T14:37:25;99580.63;;;43.14;12.18